Time;durP1;ratioP1;P1;durP2;ratioP2;P2;SDS_P1;SDS_P2;PMS_P1;PMS_P2;Temp;Humidity;BMP_temperature;BMP_pressure;BME280_temperature;BME280_humidity;BME280_pressure;Samples;Min_cycle;Max_cycle;Signal;HPM_P1;HPM_P2
2021/12/22 00:00:30;;;;;;;;;;;5.90;76.10;;;;;;5073036;28;19931;-61
2021/12/22 00:02:57;;;;;;;;;;;6.00;76.70;;;;;;5073233;28;19940;-61
2021/12/22 00:05:25;;;;;;;;;;;6.00;76.60;;;;;;5073202;28;20363;-62
2021/12/22 00:07:51;;;;;;;;;;;6.00;76.60;;;;;;5073318;28;19978;-66
2021/12/22 00:10:18;;;;;;;;;;;6.00;76.40;;;;;;5072897;28;20376;-68
2021/12/22 00:12:44;;;;;;;;;;;6.00;76.70;;;;;;5073106;28;19912;-60
2021/12/22 00:15:10;;;;;;;;;;;6.00;76.60;;;;;;5072972;28;19913;-66
2021/12/22 00:17:35;;;;;;;;;;;6.00;76.40;;;;;;5073306;28;19955;-68
2021/12/22 00:20:02;;;;;;;;;;;6.10;76.20;;;;;;5072877;28;19929;-68
2021/12/22 00:22:28;;;;;;;;;;;6.00;76.20;;;;;;5072852;28;19915;-67
2021/12/22 00:24:53;;;;;;;;;;;6.10;75.70;;;;;;5073151;28;19908;-61
2021/12/22 00:27:19;;;;;;;;;;;6.10;75.60;;;;;;5073031;28;20284;-59
2021/12/22 00:29:48;;;;;;;;;;;6.10;75.60;;;;;;5072810;28;20379;-68
2021/12/22 00:32:16;;;;;;;;;;;6.10;76.00;;;;;;5072892;28;19908;-66
2021/12/22 00:34:48;;;;;;;;;;;6.20;75.70;;;;;;5074741;28;20002;-69
2021/12/22 00:37:17;;;;;;;;;;;6.10;75.90;;;;;;5074874;28;20378;-68
2021/12/22 00:39:44;;;;;;;;;;;6.10;75.90;;;;;;5073926;28;19962;-67
2021/12/22 00:42:10;;;;;;;;;;;6.20;75.40;;;;;;5072863;28;19909;-65
2021/12/22 00:44:36;;;;;;;;;;;6.20;75.40;;;;;;5072700;28;19909;-60
2021/12/22 00:47:02;;;;;;;;;;;6.20;75.80;;;;;;5072772;28;19909;-64
2021/12/22 00:49:27;;;;;;;;;;;6.20;75.30;;;;;;5072827;28;19909;-62
2021/12/22 00:51:53;;;;;;;;;;;6.20;75.10;;;;;;5072666;28;19913;-63
2021/12/22 00:54:18;;;;;;;;;;;6.20;75.50;;;;;;5072776;28;19909;-61
2021/12/22 00:56:44;;;;;;;;;;;6.20;76.00;;;;;;5072697;28;19923;-71
2021/12/22 00:59:10;;;;;;;;;;;6.10;76.60;;;;;;5072718;28;19935;-61
2021/12/22 01:01:35;;;;;;;;;;;6.10;76.60;;;;;;5075232;28;19908;-61
2021/12/22 01:04:01;;;;;;;;;;;6.20;76.00;;;;;;5076036;28;19909;-65
2021/12/22 01:06:27;;;;;;;;;;;6.20;75.50;;;;;;5076293;28;20394;-67
2021/12/22 01:08:52;;;;;;;;;;;6.30;75.30;;;;;;5076208;28;19935;-60
2021/12/22 01:11:18;;;;;;;;;;;6.40;74.70;;;;;;5075937;28;20001;-60
2021/12/22 01:13:44;;;;;;;;;;;6.40;75.10;;;;;;5076140;28;19943;-64
2021/12/22 01:16:09;;;;;;;;;;;6.30;76.20;;;;;;5076019;28;19955;-65
2021/12/22 01:18:36;;;;;;;;;;;6.20;77.10;;;;;;5076099;28;19974;-60
2021/12/22 01:21:15;;;;;;;;;;;6.20;77.40;;;;;;5076166;28;19970;-67
2021/12/22 01:23:59;;;;;;;;;;;6.10;77.20;;;;;;5087104;22;19932;-59
2021/12/22 01:26:25;;;;;;;;;;;6.10;77.70;;;;;;5006296;28;19918;-61
2021/12/22 01:28:51;;;;;;;;;;;6.00;78.10;;;;;;5015968;28;19967;-60
2021/12/22 01:31:17;;;;;;;;;;;6.00;78.60;;;;;;5015961;28;19948;-60
2021/12/22 01:33:43;;;;;;;;;;;6.00;78.50;;;;;;5015813;28;20056;-59
2021/12/22 01:36:08;;;;;;;;;;;6.00;79.30;;;;;;5015882;28;19917;-59
2021/12/22 01:38:34;;;;;;;;;;;6.00;79.00;;;;;;5015632;28;19910;-60
2021/12/22 01:40:59;;;;;;;;;;;5.90;78.90;;;;;;5015634;28;19909;-63
2021/12/22 01:43:25;;;;;;;;;;;6.00;78.10;;;;;;5015715;28;20502;-60
2021/12/22 01:45:55;;;;;;;;;;;6.00;77.40;;;;;;5015681;28;19948;-61
2021/12/22 01:51:34;;;;;;;;;;;5.90;77.70;;;;;;5015053;28;19936;-59
2021/12/22 01:54:02;;;;;;;;;;;5.90;77.60;;;;;;5015318;28;20020;-59
2021/12/22 01:56:30;;;;;;;;;;;6.00;78.00;;;;;;5015235;28;19917;-63
2021/12/22 01:58:57;;;;;;;;;;;5.90;77.80;;;;;;5015283;28;20353;-60
2021/12/22 02:01:23;;;;;;;;;;;6.00;77.30;;;;;;5015336;28;19910;-59
2021/12/22 02:03:49;;;;;;;;;;;5.90;77.60;;;;;;5015340;28;20368;-59
2021/12/22 02:06:15;;;;;;;;;;;6.00;77.80;;;;;;5015078;28;19952;-60
2021/12/22 02:08:43;;;;;;;;;;;6.00;77.10;;;;;;5015241;28;19913;-60
2021/12/22 02:11:10;;;;;;;;;;;6.00;77.10;;;;;;5015195;28;19948;-61
2021/12/22 02:13:39;;;;;;;;;;;6.00;76.90;;;;;;5014884;28;19909;-59
2021/12/22 02:16:08;;;;;;;;;;;6.00;77.10;;;;;;5014899;28;20024;-60
2021/12/22 02:18:35;;;;;;;;;;;5.90;77.30;;;;;;5015013;28;20044;-61
2021/12/22 02:21:01;;;;;;;;;;;5.90;77.30;;;;;;5015062;28;20255;-62
2021/12/22 02:23:26;;;;;;;;;;;5.90;77.60;;;;;;5014990;28;19920;-58
2021/12/22 02:25:57;;;;;;;;;;;5.90;76.80;;;;;;5014628;28;20401;-59
2021/12/22 02:28:27;;;;;;;;;;;6.00;76.40;;;;;;5015037;28;19910;-59
2021/12/22 02:30:54;;;;;;;;;;;6.00;76.00;;;;;;5014754;28;20004;-59
2021/12/22 02:33:36;;;;;;;;;;;5.90;76.20;;;;;;5014473;28;19920;-61
2021/12/22 02:36:39;;;;;;;;;;;5.90;76.00;;;;;;5014878;28;19922;-61
2021/12/22 02:38:56;;;;;;;;;;;5.90;76.10;;;;;;5009647;28;20004;-59
2021/12/22 02:41:25;;;;;;;;;;;5.90;76.00;;;;;;5007805;28;19917;-61
2021/12/22 02:43:53;;;;;;;;;;;5.90;75.60;;;;;;4977241;28;19909;-61
2021/12/22 02:46:21;;;;;;;;;;;5.90;75.00;;;;;;4995113;28;19914;-59
2021/12/22 02:48:47;;;;;;;;;;;5.90;74.90;;;;;;4994859;28;19914;-61
2021/12/22 02:51:13;;;;;;;;;;;5.90;75.10;;;;;;4994598;28;19921;-64
2021/12/22 02:53:43;;;;;;;;;;;5.80;75.00;;;;;;4994782;28;20337;-65
2021/12/22 02:59:37;;;;;;;;;;;5.90;73.60;;;;;;4994870;28;20000;-60
2021/12/22 03:04:03;;;;;;;;;;;5.80;74.10;;;;;;4994673;28;19909;-65
2021/12/22 03:06:33;;;;;;;;;;;5.80;73.90;;;;;;4994442;28;20024;-60
2021/12/22 03:08:59;;;;;;;;;;;5.80;73.80;;;;;;4994701;28;20395;-63
2021/12/22 03:11:25;;;;;;;;;;;5.80;73.80;;;;;;4994179;28;19909;-65
2021/12/22 03:13:51;;;;;;;;;;;5.70;73.60;;;;;;4994418;28;20436;-58
2021/12/22 03:16:17;;;;;;;;;;;5.80;73.80;;;;;;4994423;28;19925;-62
2021/12/22 03:18:43;;;;;;;;;;;5.70;73.80;;;;;;4994161;28;19914;-58
2021/12/22 03:21:19;;;;;;;;;;;5.70;74.00;;;;;;4994226;28;19917;-63
2021/12/22 03:23:45;;;;;;;;;;;5.70;73.70;;;;;;4993581;28;19910;-65
2021/12/22 03:26:14;;;;;;;;;;;5.70;73.80;;;;;;4994381;28;19914;-61
2021/12/22 03:28:39;;;;;;;;;;;5.70;73.50;;;;;;4994000;28;19913;-61
2021/12/22 03:31:05;;;;;;;;;;;5.60;73.80;;;;;;4994181;28;20044;-63
2021/12/22 03:33:31;;;;;;;;;;;5.60;74.00;;;;;;4994124;28;20380;-64
2021/12/22 03:35:56;;;;;;;;;;;5.60;73.40;;;;;;4993771;28;20021;-61
2021/12/22 03:38:22;;;;;;;;;;;5.50;73.50;;;;;;4994226;28;19917;-60
2021/12/22 03:40:47;;;;;;;;;;;5.50;73.10;;;;;;4993866;28;19917;-62
2021/12/22 03:43:13;;;;;;;;;;;5.50;73.50;;;;;;4994132;28;19910;-60
2021/12/22 03:45:39;;;;;;;;;;;5.40;74.00;;;;;;4994083;28;19917;-60
2021/12/22 03:48:04;;;;;;;;;;;5.50;73.40;;;;;;4976519;28;20251;-60
2021/12/22 03:50:30;;;;;;;;;;;5.40;73.40;;;;;;4993901;28;20336;-59
2021/12/22 03:52:55;;;;;;;;;;;5.40;73.00;;;;;;4993984;28;19914;-62
2021/12/22 03:55:21;;;;;;;;;;;5.40;73.00;;;;;;4993759;28;19965;-60
2021/12/22 03:57:46;;;;;;;;;;;5.40;73.10;;;;;;4993868;28;19910;-60
2021/12/22 04:00:13;;;;;;;;;;;5.30;73.30;;;;;;4993756;28;19909;-60
2021/12/22 04:02:38;;;;;;;;;;;5.30;73.20;;;;;;4993871;28;19910;-59
2021/12/22 04:05:04;;;;;;;;;;;5.30;73.20;;;;;;4993734;28;19910;-59
2021/12/22 04:07:31;;;;;;;;;;;5.30;72.50;;;;;;4993784;28;19914;-60
2021/12/22 04:09:57;;;;;;;;;;;5.30;72.50;;;;;;4992416;28;19910;-59
2021/12/22 04:12:23;;;;;;;;;;;5.30;72.30;;;;;;4993599;28;20354;-59
2021/12/22 04:14:49;;;;;;;;;;;5.30;72.20;;;;;;4993803;28;19917;-59
2021/12/22 04:17:14;;;;;;;;;;;5.30;72.10;;;;;;4993613;28;19925;-59
2021/12/22 04:19:40;;;;;;;;;;;5.30;72.20;;;;;;4993468;28;19914;-59
2021/12/22 04:22:06;;;;;;;;;;;5.30;71.50;;;;;;4993603;28;19914;-59
2021/12/22 04:24:32;;;;;;;;;;;5.30;71.80;;;;;;4993550;28;20381;-59
2021/12/22 04:26:58;;;;;;;;;;;5.30;70.90;;;;;;4993734;28;19968;-60
2021/12/22 04:29:23;;;;;;;;;;;5.30;71.20;;;;;;4993796;28;20327;-59
2021/12/22 04:31:49;;;;;;;;;;;5.20;71.60;;;;;;4993328;28;19909;-59
2021/12/22 04:34:14;;;;;;;;;;;5.20;71.00;;;;;;4993775;28;19909;-60
2021/12/22 04:36:41;;;;;;;;;;;5.10;71.00;;;;;;4996629;28;19918;-65
2021/12/22 04:39:08;;;;;;;;;;;5.10;70.80;;;;;;4997123;28;19914;-66
2021/12/22 04:41:33;;;;;;;;;;;5.10;70.90;;;;;;4997261;28;19910;-64
2021/12/22 04:43:59;;;;;;;;;;;5.10;71.00;;;;;;4997057;28;19910;-67
2021/12/22 04:46:25;;;;;;;;;;;5.00;71.10;;;;;;4997193;28;19933;-63
2021/12/22 04:48:50;;;;;;;;;;;5.00;71.10;;;;;;4997001;28;19948;-60
2021/12/22 04:51:52;;;;;;;;;;;5.10;70.30;;;;;;4996714;28;19918;-66
2021/12/22 04:54:19;;;;;;;;;;;5.10;70.20;;;;;;4992799;28;19917;-64
2021/12/22 04:56:45;;;;;;;;;;;5.00;70.10;;;;;;4996978;28;20291;-60
2021/12/22 04:59:10;;;;;;;;;;;5.10;69.80;;;;;;4996541;28;19910;-72
2021/12/22 05:01:36;;;;;;;;;;;5.10;69.90;;;;;;4996803;28;19918;-68
2021/12/22 05:04:02;;;;;;;;;;;5.10;69.80;;;;;;4996790;28;20386;-64
2021/12/22 05:06:27;;;;;;;;;;;5.00;69.80;;;;;;4996586;28;19910;-67
2021/12/22 05:08:53;;;;;;;;;;;5.10;70.00;;;;;;4996815;28;19910;-66
2021/12/22 05:11:18;;;;;;;;;;;5.10;69.90;;;;;;4996586;28;20268;-64
2021/12/22 05:13:44;;;;;;;;;;;5.00;69.50;;;;;;4996618;28;20029;-68
2021/12/22 05:16:17;;;;;;;;;;;5.00;70.10;;;;;;4996544;28;19918;-70
2021/12/22 05:18:56;;;;;;;;;;;5.00;69.80;;;;;;4996397;28;19965;-66
2021/12/22 05:21:22;;;;;;;;;;;4.90;69.90;;;;;;4996516;28;19910;-67
2021/12/22 05:23:49;;;;;;;;;;;4.90;69.80;;;;;;4996273;28;19913;-66
2021/12/22 05:26:15;;;;;;;;;;;4.90;70.10;;;;;;4996409;28;19914;-64
2021/12/22 05:28:40;;;;;;;;;;;4.90;69.80;;;;;;4996280;28;20369;-69
2021/12/22 05:31:06;;;;;;;;;;;5.00;69.70;;;;;;4996443;28;19914;-66
2021/12/22 05:33:31;;;;;;;;;;;4.90;69.80;;;;;;4996355;28;19910;-68
2021/12/22 05:35:57;;;;;;;;;;;4.90;70.10;;;;;;4996054;28;20384;-67
2021/12/22 05:38:23;;;;;;;;;;;4.90;69.50;;;;;;4996358;28;20432;-72
2021/12/22 05:40:48;;;;;;;;;;;4.90;69.80;;;;;;4996004;28;20274;-66
2021/12/22 05:43:14;;;;;;;;;;;4.90;69.70;;;;;;4996238;28;20365;-60
2021/12/22 05:45:39;;;;;;;;;;;4.90;69.80;;;;;;4996216;28;20361;-59
2021/12/22 05:48:05;;;;;;;;;;;4.90;69.30;;;;;;4995344;28;19976;-60
2021/12/22 05:50:31;;;;;;;;;;;4.90;69.30;;;;;;4996026;28;19985;-58
2021/12/22 05:52:56;;;;;;;;;;;4.90;69.40;;;;;;4995832;28;20428;-59
2021/12/22 05:55:22;;;;;;;;;;;4.80;69.60;;;;;;4995754;28;19944;-60
2021/12/22 05:57:47;;;;;;;;;;;4.90;69.10;;;;;;4995856;28;20337;-60
2021/12/22 06:00:13;;;;;;;;;;;5.00;69.00;;;;;;4995557;28;19937;-61
2021/12/22 06:02:39;;;;;;;;;;;4.90;69.20;;;;;;4995691;28;19950;-59
2021/12/22 06:05:05;;;;;;;;;;;4.90;69.30;;;;;;4995658;28;19945;-60
2021/12/22 06:07:31;;;;;;;;;;;4.80;69.60;;;;;;4995396;28;20338;-61
2021/12/22 06:09:56;;;;;;;;;;;4.80;69.40;;;;;;4995352;28;19914;-65
2021/12/22 06:12:22;;;;;;;;;;;4.70;69.60;;;;;;4995449;28;19910;-59
2021/12/22 06:14:47;;;;;;;;;;;4.70;70.00;;;;;;4995486;28;19910;-60
2021/12/22 06:17:14;;;;;;;;;;;4.80;69.70;;;;;;4995413;28;19918;-60
2021/12/22 06:19:39;;;;;;;;;;;4.80;69.80;;;;;;4995137;28;20362;-60
2021/12/22 06:22:05;;;;;;;;;;;4.70;70.20;;;;;;4995424;28;19910;-60
2021/12/22 06:24:30;;;;;;;;;;;4.80;69.70;;;;;;4995221;28;19922;-60
2021/12/22 06:26:57;;;;;;;;;;;4.90;69.80;;;;;;4995145;28;19920;-60
2021/12/22 06:29:23;;;;;;;;;;;4.80;69.70;;;;;;4994952;28;20276;-59
2021/12/22 06:31:49;;;;;;;;;;;4.90;70.10;;;;;;4995031;28;19909;-58
2021/12/22 06:34:14;;;;;;;;;;;5.00;68.70;;;;;;4995183;28;19914;-59
2021/12/22 06:36:40;;;;;;;;;;;4.90;68.70;;;;;;4994451;28;20428;-57
2021/12/22 06:39:06;;;;;;;;;;;5.00;68.20;;;;;;4994703;28;19914;-58
2021/12/22 06:41:31;;;;;;;;;;;5.00;69.00;;;;;;4995110;28;19937;-58
2021/12/22 06:43:57;;;;;;;;;;;5.00;68.70;;;;;;4994634;28;19921;-57
2021/12/22 06:46:23;;;;;;;;;;;5.10;70.70;;;;;;4994891;28;19909;-56
2021/12/22 06:48:48;;;;;;;;;;;5.60;71.20;;;;;;4994830;28;19945;-56
2021/12/22 06:51:14;;;;;;;;;;;5.80;67.60;;;;;;4994533;28;19910;-54
2021/12/22 06:53:40;;;;;;;;;;;5.90;66.60;;;;;;4994461;28;19910;-62
2021/12/22 06:56:06;;;;;;;;;;;5.90;66.30;;;;;;4994133;28;20023;-60
2021/12/22 06:58:31;;;;;;;;;;;5.50;65.80;;;;;;4993856;28;19913;-59
2021/12/22 07:00:58;;;;;;;;;;;5.30;67.10;;;;;;4994436;28;20284;-58
2021/12/22 07:03:24;;;;;;;;;;;5.10;67.70;;;;;;4994310;28;19909;-60
2021/12/22 07:05:49;;;;;;;;;;;5.00;67.80;;;;;;4994547;28;19910;-60
2021/12/22 07:08:15;;;;;;;;;;;5.00;68.40;;;;;;4994319;28;20251;-60
2021/12/22 07:10:41;;;;;;;;;;;4.90;68.50;;;;;;4994225;28;19932;-60
2021/12/22 07:13:07;;;;;;;;;;;4.90;68.80;;;;;;4994278;28;19920;-58
2021/12/22 07:15:32;;;;;;;;;;;4.90;68.60;;;;;;4994263;28;19980;-61
2021/12/22 07:17:58;;;;;;;;;;;4.90;68.30;;;;;;4994251;28;19910;-62
2021/12/22 07:20:24;;;;;;;;;;;4.90;68.20;;;;;;4994368;28;19910;-60
2021/12/22 07:22:49;;;;;;;;;;;4.90;68.00;;;;;;4993735;28;19910;-60
2021/12/22 07:25:18;;;;;;;;;;;4.90;68.30;;;;;;4994230;28;20259;-62
2021/12/22 07:27:44;;;;;;;;;;;4.90;68.30;;;;;;4993882;28;19964;-59
2021/12/22 07:30:10;;;;;;;;;;;4.90;67.90;;;;;;4994254;28;19964;-59
2021/12/22 07:32:36;;;;;;;;;;;4.80;68.40;;;;;;4993931;28;20490;-59
2021/12/22 07:35:04;;;;;;;;;;;4.80;68.00;;;;;;4993719;28;19917;-58
2021/12/22 07:37:36;;;;;;;;;;;4.90;68.30;;;;;;4993869;28;19916;-64
2021/12/22 07:40:01;;;;;;;;;;;4.80;68.50;;;;;;4993488;28;19910;-60
2021/12/22 07:42:27;;;;;;;;;;;4.80;68.90;;;;;;4994063;28;20286;-60
2021/12/22 07:44:53;;;;;;;;;;;4.80;68.40;;;;;;4993822;28;20029;-60
2021/12/22 07:47:18;;;;;;;;;;;4.80;68.20;;;;;;4993792;28;20010;-59
2021/12/22 07:49:44;;;;;;;;;;;4.80;67.80;;;;;;4993723;28;19910;-63
2021/12/22 07:52:09;;;;;;;;;;;4.80;67.80;;;;;;4993353;28;19914;-61
2021/12/22 07:54:35;;;;;;;;;;;4.80;68.10;;;;;;4993735;28;19917;-61
2021/12/22 07:57:00;;;;;;;;;;;4.90;68.20;;;;;;4993642;28;19918;-57
2021/12/22 07:59:26;;;;;;;;;;;4.90;67.70;;;;;;4993555;28;19961;-57
2021/12/22 08:01:52;;;;;;;;;;;4.70;68.10;;;;;;4993731;28;19953;-63
2021/12/22 08:04:17;;;;;;;;;;;4.90;67.80;;;;;;4993670;28;19917;-60
2021/12/22 08:06:43;;;;;;;;;;;4.90;67.70;;;;;;4993567;28;20273;-61
2021/12/22 08:09:08;;;;;;;;;;;4.90;67.60;;;;;;4993831;28;19910;-60
2021/12/22 08:11:34;;;;;;;;;;;4.90;67.80;;;;;;4996644;28;20354;-59
2021/12/22 08:13:59;;;;;;;;;;;4.90;67.20;;;;;;4997597;28;19917;-59
2021/12/22 08:16:25;;;;;;;;;;;4.90;67.00;;;;;;4997401;28;19918;-63
2021/12/22 08:18:50;;;;;;;;;;;4.90;67.10;;;;;;4997484;28;19921;-66
2021/12/22 08:21:16;;;;;;;;;;;4.90;67.60;;;;;;5009580;28;20392;-63
2021/12/22 08:23:42;;;;;;;;;;;4.90;67.10;;;;;;5015373;28;20377;-63
2021/12/22 08:26:07;;;;;;;;;;;4.90;67.10;;;;;;5015710;28;19924;-64
2021/12/22 08:28:33;;;;;;;;;;;4.90;67.20;;;;;;5015514;28;19956;-63
2021/12/22 08:30:58;;;;;;;;;;;5.00;67.10;;;;;;5015330;28;20336;-63
2021/12/22 08:33:27;;;;;;;;;;;5.00;67.00;;;;;;5015600;28;19909;-60
2021/12/22 08:38:50;;;;;;;;;;;4.90;67.00;;;;;;5015732;28;19917;-64
2021/12/22 08:41:24;;;;;;;;;;;4.90;67.60;;;;;;5015487;28;20047;-63
2021/12/22 08:43:50;;;;;;;;;;;4.80;67.10;;;;;;5014817;28;19910;-65
2021/12/22 08:46:16;;;;;;;;;;;4.90;67.00;;;;;;5014425;28;19917;-59
2021/12/22 08:48:41;;;;;;;;;;;4.90;67.20;;;;;;5015161;28;19917;-62
2021/12/22 08:51:07;;;;;;;;;;;5.00;67.00;;;;;;5013713;28;19913;-61
2021/12/22 08:53:33;;;;;;;;;;;5.00;66.50;;;;;;5011247;28;19913;-62
2021/12/22 08:55:58;;;;;;;;;;;5.10;66.20;;;;;;5015550;28;19917;-59
2021/12/22 08:58:24;;;;;;;;;;;5.00;65.90;;;;;;5015414;28;19963;-61
2021/12/22 09:00:49;;;;;;;;;;;5.10;66.90;;;;;;5016192;28;19913;-62
2021/12/22 09:03:15;;;;;;;;;;;5.10;66.60;;;;;;5016214;28;19909;-62
2021/12/22 09:05:40;;;;;;;;;;;5.10;66.20;;;;;;5016357;28;19956;-61
2021/12/22 09:08:06;;;;;;;;;;;5.10;66.10;;;;;;5016501;28;19913;-61
2021/12/22 09:10:31;;;;;;;;;;;5.20;66.00;;;;;;5015926;28;20360;-59
2021/12/22 09:12:57;;;;;;;;;;;5.10;66.00;;;;;;5016200;28;19913;-62
2021/12/22 09:15:23;;;;;;;;;;;5.10;65.90;;;;;;5015972;28;20473;-61
2021/12/22 09:17:48;;;;;;;;;;;5.20;65.50;;;;;;4998251;28;19913;-63
2021/12/22 09:20:14;;;;;;;;;;;5.20;65.50;;;;;;5015968;28;19910;-58
2021/12/22 09:22:39;;;;;;;;;;;5.10;65.90;;;;;;5014721;28;20319;-58
2021/12/22 09:25:05;;;;;;;;;;;5.00;65.70;;;;;;5016006;28;19922;-58
2021/12/22 09:27:31;;;;;;;;;;;5.00;65.90;;;;;;5015430;28;20349;-65
2021/12/22 09:29:56;;;;;;;;;;;5.10;66.40;;;;;;5015489;28;20377;-64
2021/12/22 09:32:22;;;;;;;;;;;5.10;66.50;;;;;;5015927;28;19913;-59
2021/12/22 09:34:49;;;;;;;;;;;5.20;65.70;;;;;;5015749;28;19917;-62
2021/12/22 09:37:16;;;;;;;;;;;5.20;65.80;;;;;;5015634;28;20362;-60
2021/12/22 09:39:42;;;;;;;;;;;5.20;65.00;;;;;;5015613;28;20377;-63
2021/12/22 09:42:07;;;;;;;;;;;5.30;65.10;;;;;;5015549;28;19909;-60
2021/12/22 09:44:37;;;;;;;;;;;5.40;64.40;;;;;;5015535;28;19916;-59
2021/12/22 09:47:03;;;;;;;;;;;5.40;64.10;;;;;;5015232;28;20005;-61
2021/12/22 09:52:18;;;;;;;;;;;5.50;63.70;;;;;;5015428;28;19963;-60
2021/12/22 09:54:44;;;;;;;;;;;5.60;64.50;;;;;;5015349;28;19910;-60
2021/12/22 09:57:10;;;;;;;;;;;5.60;64.20;;;;;;5014982;28;19917;-59
2021/12/22 09:59:36;;;;;;;;;;;5.60;63.50;;;;;;5015367;28;19909;-59
2021/12/22 10:02:02;;;;;;;;;;;5.60;63.50;;;;;;5015359;28;19956;-57
2021/12/22 10:04:27;;;;;;;;;;;5.80;62.90;;;;;;5015101;28;20004;-58
2021/12/22 10:06:53;;;;;;;;;;;5.90;63.10;;;;;;5015287;28;19975;-62
2021/12/22 10:09:23;;;;;;;;;;;5.90;62.80;;;;;;5015245;28;19916;-62
2021/12/22 10:11:49;;;;;;;;;;;6.00;62.60;;;;;;5015067;28;19914;-59
2021/12/22 10:14:19;;;;;;;;;;;6.10;62.30;;;;;;5015018;28;19996;-58
2021/12/22 10:16:46;;;;;;;;;;;6.00;62.20;;;;;;5014935;28;20285;-59
2021/12/22 10:19:12;;;;;;;;;;;6.10;62.30;;;;;;5015014;28;19909;-60
2021/12/22 10:21:50;;;;;;;;;;;6.10;61.70;;;;;;5014452;28;19915;-57
2021/12/22 10:24:16;;;;;;;;;;;6.20;62.00;;;;;;5014703;28;20292;-60
2021/12/22 10:26:41;;;;;;;;;;;6.10;61.80;;;;;;5014784;28;19910;-58
2021/12/22 10:29:07;;;;;;;;;;;6.20;61.50;;;;;;5014394;28;19961;-57
2021/12/22 10:31:38;;;;;;;;;;;6.40;62.80;;;;;;5014679;28;19909;-59
2021/12/22 10:34:07;;;;;;;;;;;6.50;61.00;;;;;;5014446;28;20007;-58
2021/12/22 10:36:44;;;;;;;;;;;6.50;60.40;;;;;;5014598;28;19940;-60
2021/12/22 10:39:16;;;;;;;;;;;6.40;61.30;;;;;;5014690;28;19918;-60
2021/12/22 10:41:42;;;;;;;;;;;6.40;61.50;;;;;;5014513;28;19964;-60
2021/12/22 10:44:09;;;;;;;;;;;6.60;61.10;;;;;;5013746;28;20144;-69
2021/12/22 10:46:35;;;;;;;;;;;6.70;60.20;;;;;;5014617;28;19909;-62
2021/12/22 10:49:15;;;;;;;;;;;6.70;59.80;;;;;;5014021;28;19972;-59
2021/12/22 10:51:43;;;;;;;;;;;6.60;60.80;;;;;;5014313;28;19937;-66
2021/12/22 10:54:09;;;;;;;;;;;6.60;60.60;;;;;;5014281;28;19955;-63
2021/12/22 10:56:36;;;;;;;;;;;6.70;60.30;;;;;;5014372;28;19917;-62
2021/12/22 10:59:07;;;;;;;;;;;6.70;59.60;;;;;;5014258;28;19984;-65
2021/12/22 11:01:37;;;;;;;;;;;6.60;59.70;;;;;;5013974;28;20349;-64
2021/12/22 11:04:05;;;;;;;;;;;6.70;60.10;;;;;;5014302;28;19981;-62
2021/12/22 11:06:32;;;;;;;;;;;6.90;59.40;;;;;;5014054;28;20353;-60
2021/12/22 11:08:59;;;;;;;;;;;7.00;59.60;;;;;;5014046;28;19914;-62
2021/12/22 11:11:32;;;;;;;;;;;7.00;59.20;;;;;;5013661;28;20432;-60
2021/12/22 11:14:05;;;;;;;;;;;6.90;59.40;;;;;;5013456;28;19913;-61
2021/12/22 11:16:30;;;;;;;;;;;6.80;59.70;;;;;;5013246;28;19918;-69
2021/12/22 11:19:09;;;;;;;;;;;6.90;59.70;;;;;;5013226;28;19924;-74
2021/12/22 11:21:36;;;;;;;;;;;6.90;59.50;;;;;;5013414;28;19909;-61
2021/12/22 11:24:01;;;;;;;;;;;7.00;59.70;;;;;;5013257;28;19924;-63
2021/12/22 11:26:28;;;;;;;;;;;7.00;59.60;;;;;;5013287;28;20281;-62
2021/12/22 11:28:54;;;;;;;;;;;7.00;59.70;;;;;;5013018;28;19913;-64
2021/12/22 11:31:19;;;;;;;;;;;6.90;59.10;;;;;;4995437;28;20361;-59
2021/12/22 11:33:46;;;;;;;;;;;6.90;59.50;;;;;;5013267;28;19910;-62
2021/12/22 11:36:12;;;;;;;;;;;6.90;59.90;;;;;;5013114;28;19929;-64
2021/12/22 11:38:40;;;;;;;;;;;7.00;59.50;;;;;;5013761;28;20431;-57
2021/12/22 11:41:15;;;;;;;;;;;7.10;59.50;;;;;;5013352;28;19964;-57
2021/12/22 11:43:42;;;;;;;;;;;6.90;59.70;;;;;;5013481;28;19932;-61
2021/12/22 11:46:08;;;;;;;;;;;7.00;60.00;;;;;;5012993;28;19943;-60
2021/12/22 11:48:34;;;;;;;;;;;7.00;60.20;;;;;;5013608;28;19909;-62
2021/12/22 11:51:00;;;;;;;;;;;7.00;60.10;;;;;;5013443;28;19910;-61
2021/12/22 11:53:25;;;;;;;;;;;7.00;60.20;;;;;;5013222;28;20354;-60
2021/12/22 11:55:57;;;;;;;;;;;7.00;59.90;;;;;;5013362;28;19918;-58
2021/12/22 11:58:24;;;;;;;;;;;6.80;60.60;;;;;;5007352;28;19914;-64
2021/12/22 12:00:50;;;;;;;;;;;7.00;60.80;;;;;;4993254;28;19973;-63
2021/12/22 12:03:23;;;;;;;;;;;7.00;60.10;;;;;;4993225;28;19913;-61
2021/12/22 12:06:03;;;;;;;;;;;7.00;60.10;;;;;;4993164;28;19917;-61
2021/12/22 12:08:32;;;;;;;;;;;6.90;59.90;;;;;;4992886;28;19914;-62
2021/12/22 12:10:59;;;;;;;;;;;7.00;60.00;;;;;;4993097;28;19920;-61
2021/12/22 12:13:34;;;;;;;;;;;7.00;60.20;;;;;;4993960;28;19910;-67
2021/12/22 12:21:49;;;;;;;;;;;7.20;60.00;;;;;;5011812;28;19992;-58
2021/12/22 12:24:30;;;;;;;;;;;7.30;59.10;;;;;;5011896;28;19921;-63
2021/12/22 12:26:56;;;;;;;;;;;7.30;59.80;;;;;;5009876;28;19920;-64
2021/12/22 12:29:40;;;;;;;;;;;7.20;59.80;;;;;;5013802;28;19909;-66
2021/12/22 12:32:06;;;;;;;;;;;7.20;59.60;;;;;;5012146;28;19913;-63
2021/12/22 12:34:31;;;;;;;;;;;7.10;59.40;;;;;;5009155;28;20008;-62
2021/12/22 12:36:57;;;;;;;;;;;7.00;59.70;;;;;;5014506;28;19964;-62
2021/12/22 12:39:41;;;;;;;;;;;7.00;59.80;;;;;;5011627;28;19913;-57
2021/12/22 12:42:06;;;;;;;;;;;7.00;59.80;;;;;;5011702;28;19924;-59
2021/12/22 12:44:32;;;;;;;;;;;7.00;59.70;;;;;;5011813;28;19914;-60
2021/12/22 12:46:57;;;;;;;;;;;7.10;59.80;;;;;;5012336;28;19935;-61
2021/12/22 12:49:23;;;;;;;;;;;7.10;59.60;;;;;;5014032;28;19909;-63
2021/12/22 12:51:49;;;;;;;;;;;6.90;59.70;;;;;;5014588;28;19932;-62
2021/12/22 12:54:15;;;;;;;;;;;6.90;59.70;;;;;;5014365;28;20373;-60
2021/12/22 12:56:42;;;;;;;;;;;7.00;59.50;;;;;;4982109;28;19944;-58
2021/12/22 12:59:09;;;;;;;;;;;6.90;59.90;;;;;;5018208;28;20302;-65
2021/12/22 13:01:44;;;;;;;;;;;7.00;59.40;;;;;;5017129;28;19917;-65
2021/12/22 13:04:21;;;;;;;;;;;7.00;60.20;;;;;;5015312;28;19913;-66
2021/12/22 13:06:47;;;;;;;;;;;7.00;60.00;;;;;;5015113;28;19921;-70
2021/12/22 13:09:32;;;;;;;;;;;6.80;60.10;;;;;;5015162;28;19917;-66
2021/12/22 13:12:00;;;;;;;;;;;6.70;60.30;;;;;;5016012;28;19913;-63
2021/12/22 13:17:13;;;;;;;;;;;6.60;61.70;;;;;;5020863;28;20347;-65
2021/12/22 13:19:43;;;;;;;;;;;6.60;61.10;;;;;;5017077;28;19913;-65
2021/12/22 13:22:15;;;;;;;;;;;6.50;61.10;;;;;;5035416;28;19909;-65
2021/12/22 13:24:41;;;;;;;;;;;6.30;61.50;;;;;;5020198;28;19941;-65
2021/12/22 13:27:06;;;;;;;;;;;6.30;63.10;;;;;;5012238;28;20004;-65
2021/12/22 13:29:32;;;;;;;;;;;6.20;61.80;;;;;;5014412;28;19916;-64
2021/12/22 13:32:15;;;;;;;;;;;6.30;61.30;;;;;;5017538;28;19913;-67
2021/12/22 13:34:44;;;;;;;;;;;6.20;61.60;;;;;;5013859;28;19939;-63
2021/12/22 13:37:10;;;;;;;;;;;6.10;62.20;;;;;;5012451;28;19971;-66
2021/12/22 13:39:42;;;;;;;;;;;6.10;62.40;;;;;;5014571;28;19917;-62
2021/12/22 13:42:08;;;;;;;;;;;6.10;62.40;;;;;;5014618;28;19909;-62
2021/12/22 13:44:38;;;;;;;;;;;5.90;62.90;;;;;;5014446;28;20251;-61
2021/12/22 13:47:04;;;;;;;;;;;5.90;62.40;;;;;;5014637;28;19909;-63
2021/12/22 13:49:31;;;;;;;;;;;5.80;63.10;;;;;;5016847;28;19910;-60
2021/12/22 13:51:56;;;;;;;;;;;5.90;62.90;;;;;;4980766;28;19914;-61
2021/12/22 13:54:23;;;;;;;;;;;5.90;62.90;;;;;;5019392;28;20273;-60
2021/12/22 13:56:50;;;;;;;;;;;6.00;62.30;;;;;;5014479;28;19918;-61
2021/12/22 13:59:16;;;;;;;;;;;5.80;62.80;;;;;;5014923;28;20053;-61
2021/12/22 14:01:43;;;;;;;;;;;5.80;63.20;;;;;;5014696;28;19916;-60
2021/12/22 14:04:09;;;;;;;;;;;5.70;63.40;;;;;;5014457;28;20004;-62
2021/12/22 14:06:37;;;;;;;;;;;5.80;63.00;;;;;;5016485;28;19992;-61
2021/12/22 14:09:08;;;;;;;;;;;5.80;62.90;;;;;;5013779;28;19971;-60
2021/12/22 14:11:41;;;;;;;;;;;5.80;62.90;;;;;;5014197;28;19909;-58
2021/12/22 14:14:25;;;;;;;;;;;5.70;62.90;;;;;;5014318;28;19919;-58
2021/12/22 14:16:53;;;;;;;;;;;5.80;63.10;;;;;;5014075;28;19918;-57
2021/12/22 14:19:19;;;;;;;;;;;5.80;63.00;;;;;;5014284;28;19919;-56
2021/12/22 14:21:47;;;;;;;;;;;5.80;62.70;;;;;;4996708;28;20330;-58
2021/12/22 14:24:19;;;;;;;;;;;5.80;62.70;;;;;;5014651;28;19913;-57
2021/12/22 14:26:46;;;;;;;;;;;5.80;62.50;;;;;;5014726;28;19913;-59
2021/12/22 14:29:11;;;;;;;;;;;5.70;62.80;;;;;;5014377;28;19909;-59
2021/12/22 14:31:52;;;;;;;;;;;5.70;62.80;;;;;;5014626;28;19913;-59
2021/12/22 14:34:18;;;;;;;;;;;5.70;63.00;;;;;;5014600;28;19910;-60
2021/12/22 14:36:45;;;;;;;;;;;5.70;62.80;;;;;;5014433;28;19972;-57
2021/12/22 14:39:11;;;;;;;;;;;5.80;62.60;;;;;;5013911;28;19932;-59
2021/12/22 14:41:36;;;;;;;;;;;5.70;63.30;;;;;;5014425;28;19913;-58
2021/12/22 14:44:02;;;;;;;;;;;5.70;62.60;;;;;;5014330;28;20001;-59
2021/12/22 14:46:34;;;;;;;;;;;5.70;62.20;;;;;;5014207;28;19910;-59
2021/12/22 14:49:00;;;;;;;;;;;5.60;62.60;;;;;;5014247;28;19914;-59
2021/12/22 14:51:26;;;;;;;;;;;5.60;63.10;;;;;;5014113;28;19909;-58
2021/12/22 14:54:02;;;;;;;;;;;5.50;63.20;;;;;;5013962;28;19917;-58